Time;durP1;ratioP1;P1;durP2;ratioP2;P2;SDS_P1;SDS_P2;PMS_P1;PMS_P2;Temp;Humidity;BMP_temperature;BMP_pressure;BME280_temperature;BME280_humidity;BME280_pressure;Samples;Min_cycle;Max_cycle;Signal;HPM_P1;HPM_P2
2022/11/22 00:00:15;;;;;;;5.40;2.90;;;8.80;99.20;;;;;;5088648;28;20435;-67
2022/11/22 00:02:42;;;;;;;4.47;2.37;;;8.90;99.30;;;;;;5088752;28;20464;-67
2022/11/22 00:05:09;;;;;;;4.40;1.80;;;8.90;99.30;;;;;;5088861;28;20449;-67
2022/11/22 00:07:38;;;;;;;3.70;2.10;;;8.80;99.20;;;;;;5089751;28;20434;-66
2022/11/22 00:10:06;;;;;;;3.67;1.90;;;8.90;99.40;;;;;;5089616;28;20454;-66
2022/11/22 00:12:33;;;;;;;3.57;2.30;;;8.80;99.20;;;;;;5089757;28;20481;-67
2022/11/22 00:15:00;;;;;;;2.67;1.70;;;8.80;99.30;;;;;;5090175;28;20456;-67
2022/11/22 00:17:26;;;;;;;2.47;1.63;;;8.80;99.50;;;;;;5090154;28;20444;-67
2022/11/22 00:19:53;;;;;;;3.10;1.70;;;8.70;99.60;;;;;;5088707;28;20455;-67
2022/11/22 00:22:20;;;;;;;2.67;1.57;;;8.80;99.80;;;;;;5088349;28;20472;-67
2022/11/22 00:24:50;;;;;;;3.97;1.73;;;8.80;99.90;;;;;;5088318;28;20434;-68
2022/11/22 00:27:16;;;;;;;6.57;1.80;;;8.80;99.90;;;;;;5088936;28;20464;-67
2022/11/22 00:29:43;;;;;;;7.60;2.07;;;8.90;99.80;;;;;;5087208;28;20453;-68
2022/11/22 00:32:11;;;;;;;3.00;1.57;;;8.80;99.80;;;;;;5086710;28;20497;-68
2022/11/22 00:34:38;;;;;;;3.43;1.57;;;8.80;99.80;;;;;;5087142;28;20438;-67
2022/11/22 00:37:04;;;;;;;2.77;1.47;;;8.80;99.90;;;;;;5087961;28;20456;-68
2022/11/22 00:39:31;;;;;;;2.50;1.40;;;8.80;99.90;;;;;;5087460;28;20447;-68
2022/11/22 00:41:59;;;;;;;2.03;0.90;;;8.80;99.90;;;;;;5087152;28;20442;-69
2022/11/22 00:44:26;;;;;;;3.57;1.20;;;8.80;99.90;;;;;;5085910;28;20445;-67
2022/11/22 00:46:53;;;;;;;3.00;1.50;;;8.80;99.90;;;;;;5085886;28;20450;-67
2022/11/22 00:49:19;;;;;;;3.20;1.40;;;8.90;99.90;;;;;;5086701;28;20810;-67
2022/11/22 00:51:46;;;;;;;2.00;1.40;;;8.90;99.80;;;;;;5085458;28;20462;-67
2022/11/22 00:54:13;;;;;;;3.47;1.70;;;8.90;99.80;;;;;;5086449;28;20463;-67
2022/11/22 00:56:39;;;;;;;2.40;1.50;;;8.90;99.90;;;;;;5086116;28;20984;-68
2022/11/22 00:59:09;;;;;;;2.47;1.20;;;9.00;99.80;;;;;;5086494;28;20446;-68
2022/11/22 01:01:36;;;;;;;3.30;1.63;;;9.00;99.70;;;;;;5077363;28;20473;-68
2022/11/22 01:04:02;;;;;;;2.30;1.13;;;9.00;99.80;;;;;;5081371;28;20466;-68
2022/11/22 01:06:29;;;;;;;1.40;1.00;;;9.00;99.80;;;;;;5085997;28;20437;-68
2022/11/22 01:08:56;;;;;;;3.33;1.40;;;9.00;99.80;;;;;;5085699;28;20453;-68
2022/11/22 01:11:23;;;;;;;3.77;1.30;;;9.00;99.50;;;;;;5085864;28;20806;-68
2022/11/22 01:13:50;;;;;;;2.00;1.03;;;9.00;99.60;;;;;;5085474;28;20490;-68
2022/11/22 01:16:18;;;;;;;3.93;1.10;;;9.00;99.60;;;;;;5085936;28;20446;-69
2022/11/22 01:18:44;;;;;;;4.50;1.47;;;9.00;99.50;;;;;;5085962;28;20461;-68
2022/11/22 01:21:12;;;;;;;2.50;1.20;;;9.10;99.50;;;;;;5086528;28;20456;-68
2022/11/22 01:23:38;;;;;;;5.83;2.93;;;9.10;99.30;;;;;;5085893;28;21108;-68
2022/11/22 01:26:08;;;;;;;1.90;1.07;;;9.10;99.10;;;;;;5068231;28;20454;-68
2022/11/22 01:28:35;;;;;;;4.13;1.37;;;9.10;99.20;;;;;;5087211;28;20432;-68
2022/11/22 01:31:02;;;;;;;3.83;1.93;;;9.10;99.20;;;;;;5086224;28;20450;-67
2022/11/22 01:33:30;;;;;;;4.30;1.67;;;9.00;99.20;;;;;;5087082;28;20475;-68
2022/11/22 01:35:58;;;;;;;2.83;1.67;;;9.00;99.30;;;;;;5086741;28;20462;-68
2022/11/22 01:38:24;;;;;;;8.40;1.70;;;9.00;99.30;;;;;;5087175;28;20431;-67
2022/11/22 01:40:51;;;;;;;3.97;1.40;;;9.10;99.30;;;;;;5087298;28;20453;-67
2022/11/22 01:43:20;;;;;;;5.47;1.53;;;9.00;99.20;;;;;;5088375;28;20470;-67
2022/11/22 01:45:50;;;;;;;8.13;1.53;;;9.00;99.20;;;;;;5087613;28;20464;-67
2022/11/22 01:48:24;;;;;;;4.33;1.27;;;9.10;99.20;;;;;;5087166;28;20432;-67
2022/11/22 01:50:56;;;;;;;3.40;1.43;;;9.10;99.20;;;;;;5076121;28;20659;-67
2022/11/22 01:53:28;;;;;;;9.00;1.47;;;9.00;99.10;;;;;;5080286;28;20491;-67
2022/11/22 01:55:57;;;;;;;5.00;1.40;;;9.10;99.00;;;;;;5082943;28;20446;-68
2022/11/22 01:58:25;;;;;;;4.03;1.30;;;9.10;99.00;;;;;;5083824;28;20454;-67
2022/11/22 02:00:54;;;;;;;4.63;1.60;;;9.10;98.90;;;;;;5083808;28;20442;-67
2022/11/22 02:03:22;;;;;;;8.27;1.80;;;9.10;98.90;;;;;;5084150;28;20458;-67
2022/11/22 02:05:50;;;;;;;7.60;2.00;;;9.00;98.80;;;;;;5087019;28;20448;-67
2022/11/22 02:08:24;;;;;;;7.67;1.57;;;9.00;98.90;;;;;;5087928;28;20450;-67
2022/11/22 02:10:53;;;;;;;9.10;2.20;;;9.00;98.90;;;;;;5088302;28;20431;-68
2022/11/22 02:13:21;;;;;;;6.43;1.87;;;8.90;99.00;;;;;;5085141;28;20486;-68
2022/11/22 02:15:49;;;;;;;4.73;1.77;;;8.90;98.90;;;;;;5087299;28;20460;-67
2022/11/22 02:18:16;;;;;;;9.93;1.80;;;8.90;98.90;;;;;;5087749;28;20461;-68
2022/11/22 02:20:43;;;;;;;7.23;1.50;;;8.90;98.90;;;;;;5086293;28;20442;-67
2022/11/22 02:23:17;;;;;;;8.17;2.13;;;8.90;98.90;;;;;;5086017;28;20492;-68
2022/11/22 02:25:51;;;;;;;5.97;2.07;;;8.90;98.90;;;;;;5086711;28;20441;-67
2022/11/22 02:28:18;;;;;;;9.87;2.17;;;8.80;98.80;;;;;;5078511;28;20443;-67
2022/11/22 02:30:44;;;;;;;10.10;2.00;;;8.80;98.80;;;;;;5086809;28;20453;-68
2022/11/22 02:33:11;;;;;;;8.23;1.70;;;8.80;98.90;;;;;;5087597;28;20486;-68
2022/11/22 02:35:39;;;;;;;10.00;2.20;;;8.80;98.70;;;;;;5088739;28;20450;-68
2022/11/22 02:38:09;;;;;;;10.13;2.07;;;8.80;98.80;;;;;;5087027;28;20459;-67
2022/11/22 02:40:40;;;;;;;9.20;1.77;;;8.70;98.70;;;;;;5087568;28;20424;-67
2022/11/22 02:43:11;;;;;;;10.83;2.60;;;8.70;98.80;;;;;;5087269;28;20832;-67
2022/11/22 02:45:38;;;;;;;10.83;2.10;;;8.70;98.80;;;;;;5087276;28;20435;-67
2022/11/22 02:48:06;;;;;;;8.20;3.20;;;8.70;98.70;;;;;;5091095;28;20457;-67
2022/11/22 02:50:33;;;;;;;9.70;2.63;;;8.70;98.70;;;;;;5091595;28;20421;-67
2022/11/22 02:53:00;;;;;;;8.00;2.43;;;8.70;98.80;;;;;;5091573;28;20495;-67
2022/11/22 02:55:27;;;;;;;12.13;2.30;;;8.70;98.70;;;;;;5085358;28;20445;-67
2022/11/22 02:57:53;;;;;;;6.67;2.40;;;8.70;98.80;;;;;;5081712;28;20949;-67
2022/11/22 03:00:21;;;;;;;10.50;2.33;;;8.70;98.60;;;;;;5088807;28;20445;-67
2022/11/22 03:02:48;;;;;;;13.07;2.30;;;8.60;98.60;;;;;;5091441;28;20461;-67
2022/11/22 03:05:15;;;;;;;11.53;2.70;;;8.60;98.60;;;;;;5092062;28;20963;-67
2022/11/22 03:07:42;;;;;;;9.03;2.20;;;8.60;98.50;;;;;;5091713;28;20459;-67
2022/11/22 03:10:09;;;;;;;8.37;2.10;;;8.60;98.60;;;;;;5092719;28;20447;-67
2022/11/22 03:12:36;;;;;;;10.90;2.20;;;8.60;98.50;;;;;;5091903;28;20469;-68
2022/11/22 03:15:03;;;;;;;12.57;2.40;;;8.60;98.40;;;;;;5092228;28;20437;-68
2022/11/22 03:17:31;;;;;;;13.30;2.33;;;8.60;98.30;;;;;;5091911;28;20441;-67
2022/11/22 03:19:58;;;;;;;10.20;2.60;;;8.60;98.30;;;;;;5091976;28;20443;-67
2022/11/22 03:22:25;;;;;;;9.53;2.37;;;8.60;98.40;;;;;;5090797;28;20467;-68
2022/11/22 03:24:52;;;;;;;16.80;3.00;;;8.50;98.40;;;;;;5090920;28;20438;-68
2022/11/22 03:27:18;;;;;;;12.93;3.77;;;8.50;98.30;;;;;;5091241;28;20442;-68
2022/11/22 03:29:45;;;;;;;8.20;2.63;;;8.50;98.30;;;;;;5090657;28;20459;-67
2022/11/22 03:32:12;;;;;;;9.10;1.73;;;8.50;98.30;;;;;;5091179;28;20488;-68
2022/11/22 03:34:40;;;;;;;6.90;2.63;;;8.50;98.30;;;;;;5090006;28;20600;-68
2022/11/22 03:37:07;;;;;;;9.60;2.33;;;8.50;98.30;;;;;;5090352;28;20453;-68
2022/11/22 03:39:35;;;;;;;10.47;2.10;;;8.50;98.20;;;;;;5087163;28;20822;-67
2022/11/22 03:42:01;;;;;;;13.13;2.60;;;8.50;98.10;;;;;;5078194;28;20452;-67
2022/11/22 03:44:28;;;;;;;15.30;3.10;;;8.50;98.00;;;;;;5088621;28;20971;-67
2022/11/22 03:46:55;;;;;;;7.93;2.70;;;8.50;98.00;;;;;;5089497;28;20445;-67
2022/11/22 03:49:21;;;;;;;9.37;2.80;;;8.50;97.80;;;;;;5089045;28;20445;-67
2022/11/22 03:51:50;;;;;;;15.27;3.00;;;8.50;97.60;;;;;;5090620;28;20433;-67
2022/11/22 03:54:16;;;;;;;13.20;2.73;;;8.50;97.60;;;;;;5090873;28;20480;-68
2022/11/22 03:56:43;;;;;;;10.30;3.17;;;8.50;97.60;;;;;;5090277;28;20445;-68
2022/11/22 03:59:10;;;;;;;9.97;2.43;;;8.40;97.50;;;;;;5089139;28;20508;-68
2022/11/22 04:01:36;;;;;;;10.00;2.87;;;8.40;97.50;;;;;;5090584;28;20445;-67
2022/11/22 04:04:03;;;;;;;8.90;2.27;;;8.40;97.30;;;;;;5089626;28;20453;-68
2022/11/22 04:06:30;;;;;;;7.43;2.10;;;8.40;97.00;;;;;;5090290;28;20449;-68
2022/11/22 04:08:58;;;;;;;13.73;3.17;;;8.40;97.20;;;;;;5089537;28;20445;-67
2022/11/22 04:11:25;;;;;;;11.90;2.87;;;8.40;97.10;;;;;;5090316;28;20444;-67
2022/11/22 04:16:36;;;;;;;10.83;4.00;;;8.30;97.10;;;;;;5090461;28;20950;-68
2022/11/22 04:19:03;;;;;;;8.60;3.77;;;8.30;97.10;;;;;;5089956;28;20426;-67
2022/11/22 04:21:34;;;;;;;13.60;3.10;;;8.20;96.90;;;;;;5089734;28;20437;-67
2022/11/22 04:26:48;;;;;;;10.30;4.20;;;8.20;97.00;;;;;;5089232;28;20408;-68
2022/11/22 04:29:15;;;;;;;14.23;4.10;;;8.20;97.10;;;;;;5088471;28;20459;-67
2022/11/22 04:34:27;;;;;;;8.97;3.10;;;8.20;97.00;;;;;;5090746;28;20475;-67
2022/11/22 04:36:53;;;;;;;9.47;3.50;;;8.20;96.80;;;;;;5090073;28;20471;-67
2022/11/22 04:39:21;;;;;;;10.07;2.77;;;8.20;96.60;;;;;;5089898;28;20442;-67
2022/11/22 04:44:39;;;;;;;15.37;3.10;;;8.20;96.60;;;;;;5088567;28;20432;-68
2022/11/22 04:44:40;;;;;;;8.50;2.50;;;8.20;96.60;;;;;;5088502;28;20828;-68
2022/11/22 04:47:07;;;;;;;13.03;2.90;;;8.20;96.40;;;;;;5089188;28;20425;-67
2022/11/22 04:49:34;;;;;;;6.13;1.90;;;8.20;96.30;;;;;;5089834;28;20460;-66
2022/11/22 04:54:46;;;;;;;9.77;2.60;;;8.20;96.30;;;;;;5090209;28;20469;-68
2022/11/22 04:57:13;;;;;;;10.27;2.73;;;8.20;96.10;;;;;;5086845;28;20456;-68
2022/11/22 04:59:39;;;;;;;12.10;2.97;;;8.20;96.00;;;;;;5085182;28;20448;-67
2022/11/22 05:02:06;;;;;;;7.20;2.50;;;8.20;96.10;;;;;;5087789;28;20469;-67
2022/11/22 05:04:33;;;;;;;12.90;3.27;;;8.20;96.10;;;;;;5087126;28;20437;-67
2022/11/22 05:07:00;;;;;;;16.53;3.70;;;8.20;95.90;;;;;;5084391;28;20456;-68
2022/11/22 05:09:27;;;;;;;8.33;2.70;;;8.20;95.80;;;;;;5086497;28;20440;-67
2022/11/22 05:11:55;;;;;;;8.53;2.50;;;8.20;95.90;;;;;;5086499;28;20525;-68
2022/11/22 05:14:21;;;;;;;11.80;2.90;;;8.10;95.90;;;;;;5085233;28;20480;-68
2022/11/22 05:16:48;;;;;;;4.80;2.00;;;8.10;95.80;;;;;;5084854;28;20436;-67
2022/11/22 05:19:15;;;;;;;10.40;2.40;;;8.10;95.60;;;;;;5084271;28;20445;-67
2022/11/22 05:21:41;;;;;;;10.20;2.87;;;8.10;95.60;;;;;;5083343;28;20453;-67
2022/11/22 05:24:08;;;;;;;13.93;2.43;;;8.10;95.60;;;;;;5082839;28;20897;-67
2022/11/22 05:26:36;;;;;;;11.43;2.97;;;8.10;95.60;;;;;;5079849;28;20972;-67
2022/11/22 05:29:06;;;;;;;9.10;2.20;;;8.10;95.90;;;;;;5076635;28;20460;-66
2022/11/22 05:31:34;;;;;;;10.33;3.53;;;8.10;95.40;;;;;;5083042;28;20433;-67
2022/11/22 05:34:01;;;;;;;7.53;2.47;;;8.10;95.40;;;;;;5082835;28;20491;-67
2022/11/22 05:36:27;;;;;;;11.20;2.53;;;8.00;95.20;;;;;;5083474;28;20453;-67
2022/11/22 05:38:55;;;;;;;11.27;2.53;;;8.00;95.50;;;;;;5084408;28;20445;-68
2022/11/22 05:41:21;;;;;;;10.10;2.87;;;8.00;95.50;;;;;;5086765;28;20456;-68
2022/11/22 05:43:48;;;;;;;14.63;3.03;;;8.00;95.60;;;;;;5088858;28;20468;-68
2022/11/22 05:46:17;;;;;;;13.20;2.53;;;8.00;95.60;;;;;;5089574;28;20430;-67
2022/11/22 05:48:46;;;;;;;6.40;2.47;;;8.00;95.80;;;;;;5089107;28;20437;-67
2022/11/22 05:51:14;;;;;;;16.63;4.10;;;7.90;95.70;;;;;;5089388;28;20456;-67
2022/11/22 05:53:42;;;;;;;16.37;2.27;;;7.90;95.90;;;;;;5087996;28;20512;-67
2022/11/22 05:56:09;;;;;;;21.23;3.20;;;7.90;95.90;;;;;;5088017;28;20455;-67
2022/11/22 05:58:36;;;;;;;14.43;2.80;;;7.90;95.90;;;;;;5088313;28;20456;-67
2022/11/22 06:01:05;;;;;;;9.73;3.10;;;7.90;95.90;;;;;;5088221;28;20452;-67
2022/11/22 06:03:33;;;;;;;14.37;2.80;;;7.90;96.20;;;;;;5078962;28;21002;-67
2022/11/22 06:06:00;;;;;;;11.87;2.63;;;7.90;95.70;;;;;;5082501;28;20449;-67
2022/11/22 06:08:29;;;;;;;11.20;2.37;;;7.90;95.90;;;;;;5089149;28;20452;-67
2022/11/22 06:10:58;;;;;;;11.77;2.87;;;7.90;95.90;;;;;;5089680;28;20444;-67
2022/11/22 06:13:24;;;;;;;8.00;2.40;;;7.90;95.80;;;;;;5088866;28;20487;-67
2022/11/22 06:15:51;;;;;;;8.17;2.30;;;7.90;95.70;;;;;;5089482;28;20448;-67
2022/11/22 06:18:18;;;;;;;12.53;2.73;;;7.90;95.50;;;;;;5088867;28;20448;-67
2022/11/22 06:20:46;;;;;;;9.07;2.63;;;7.90;95.70;;;;;;5089562;28;20433;-67
2022/11/22 06:23:13;;;;;;;9.83;2.80;;;7.90;95.60;;;;;;5074440;28;20468;-68
2022/11/22 06:25:39;;;;;;;14.30;2.80;;;7.90;95.30;;;;;;5084240;28;20456;-68
2022/11/22 06:28:06;;;;;;;8.83;2.83;;;7.90;95.10;;;;;;5089563;28;20454;-67
2022/11/22 06:30:33;;;;;;;5.93;2.07;;;7.90;95.20;;;;;;5089133;28;20443;-67
2022/11/22 06:33:00;;;;;;;13.33;2.47;;;7.90;95.20;;;;;;5088395;28;20465;-68
2022/11/22 06:35:26;;;;;;;7.37;1.97;;;7.90;95.20;;;;;;5089140;28;20479;-68
2022/11/22 06:37:54;;;;;;;7.10;2.03;;;7.90;95.10;;;;;;5088704;28;20463;-67
2022/11/22 06:40:21;;;;;;;8.67;2.40;;;7.90;95.10;;;;;;5088262;28;20441;-67
2022/11/22 06:42:48;;;;;;;7.23;2.30;;;7.80;95.10;;;;;;5088550;28;20469;-67
2022/11/22 06:45:15;;;;;;;7.33;2.87;;;7.80;95.10;;;;;;5088450;28;20445;-67
2022/11/22 06:47:41;;;;;;;8.33;2.00;;;7.70;95.20;;;;;;5089018;28;20475;-68
2022/11/22 06:50:09;;;;;;;4.93;2.00;;;7.70;95.10;;;;;;5088970;28;20478;-67
2022/11/22 06:52:36;;;;;;;5.40;1.80;;;7.70;95.10;;;;;;5089255;28;20457;-67
2022/11/22 06:55:04;;;;;;;8.20;2.30;;;7.70;95.10;;;;;;5088302;28;20486;-67
2022/11/22 06:57:31;;;;;;;11.77;2.63;;;7.70;95.00;;;;;;5088981;28;20449;-67
2022/11/22 06:59:58;;;;;;;10.33;2.60;;;7.70;94.90;;;;;;5088303;28;20833;-67
2022/11/22 07:02:25;;;;;;;10.00;2.43;;;7.70;94.90;;;;;;5087878;28;20464;-69
2022/11/22 07:04:51;;;;;;;7.43;2.80;;;7.70;95.00;;;;;;5088403;28;20458;-68
2022/11/22 07:07:18;;;;;;;9.37;2.70;;;7.60;94.80;;;;;;5088239;28;20460;-68
2022/11/22 07:09:45;;;;;;;4.00;3.10;;;7.60;94.80;;;;;;5088573;28;20437;-67
2022/11/22 07:12:13;;;;;;;6.07;2.00;;;7.60;94.80;;;;;;5087306;28;20483;-67
2022/11/22 07:14:39;;;;;;;12.23;2.57;;;7.60;94.90;;;;;;5087469;28;20477;-67
2022/11/22 07:17:06;;;;;;;10.13;3.10;;;7.60;94.70;;;;;;5087905;28;20862;-67
2022/11/22 07:19:33;;;;;;;11.03;4.10;;;7.50;94.60;;;;;;5088628;28;20452;-67
2022/11/22 07:21:59;;;;;;;7.30;2.40;;;7.50;94.60;;;;;;5086704;28;20456;-67
2022/11/22 07:24:26;;;;;;;8.60;3.90;;;7.40;94.70;;;;;;5087097;28;20444;-67
2022/11/22 07:26:53;;;;;;;9.33;3.90;;;7.30;94.80;;;;;;5087122;28;20440;-68
2022/11/22 07:29:21;;;;;;;10.27;3.07;;;7.30;94.80;;;;;;5087960;28;20527;-67
2022/11/22 07:31:48;;;;;;;5.27;2.43;;;7.30;95.00;;;;;;5088171;28;20977;-67
2022/11/22 07:34:14;;;;;;;16.30;3.17;;;7.30;94.90;;;;;;5090289;28;20481;-67
2022/11/22 07:36:41;;;;;;;8.10;2.60;;;7.30;94.80;;;;;;5092287;28;20463;-67
2022/11/22 07:39:08;;;;;;;10.67;2.50;;;7.30;95.00;;;;;;5092177;28;20444;-67
2022/11/22 07:41:34;;;;;;;11.27;2.10;;;7.20;95.10;;;;;;5092119;28;20448;-67
2022/11/22 07:44:01;;;;;;;9.23;2.47;;;7.20;95.30;;;;;;5091902;28;20468;-68
2022/11/22 07:46:31;;;;;;;8.33;2.43;;;7.20;95.20;;;;;;5091577;28;20467;-67
2022/11/22 07:48:59;;;;;;;6.20;2.30;;;7.30;95.10;;;;;;5089234;28;20436;-67
2022/11/22 07:51:26;;;;;;;5.73;2.37;;;7.20;94.80;;;;;;5091517;28;20444;-67
2022/11/22 07:53:53;;;;;;;9.37;2.77;;;7.30;94.90;;;;;;5091949;28;20460;-68
2022/11/22 07:56:20;;;;;;;13.83;2.37;;;7.30;94.80;;;;;;5091694;28;20452;-68
2022/11/22 07:58:47;;;;;;;6.70;2.63;;;7.40;94.90;;;;;;5089369;28;20443;-68
2022/11/22 08:01:15;;;;;;;14.57;2.90;;;7.40;95.00;;;;;;5089239;28;20441;-67
2022/11/22 08:03:44;;;;;;;7.43;2.43;;;7.30;95.00;;;;;;5090957;28;20497;-67
2022/11/22 08:06:12;;;;;;;10.77;2.33;;;7.30;94.90;;;;;;5091247;28;20514;-68
2022/11/22 08:08:39;;;;;;;9.97;2.43;;;7.40;95.10;;;;;;5090403;28;20523;-67
2022/11/22 08:11:07;;;;;;;15.37;2.83;;;7.40;95.10;;;;;;5091317;28;20821;-67
2022/11/22 08:13:34;;;;;;;9.30;3.10;;;7.40;94.60;;;;;;5090492;28;20473;-68
2022/11/22 08:16:03;;;;;;;10.10;2.93;;;7.40;94.50;;;;;;5090845;28;21005;-67
2022/11/22 08:18:29;;;;;;;7.03;2.40;;;7.40;94.60;;;;;;5091042;28;20432;-67
2022/11/22 08:21:04;;;;;;;5.63;2.00;;;7.40;94.70;;;;;;5091494;28;20438;-68
2022/11/22 08:23:31;;;;;;;5.40;1.60;;;7.50;94.70;;;;;;5091013;28;20468;-68
2022/11/22 08:25:58;;;;;;;14.00;2.40;;;7.50;94.60;;;;;;5091042;28;20448;-68
2022/11/22 08:28:25;;;;;;;6.87;2.23;;;7.50;94.50;;;;;;5081411;28;20449;-68
2022/11/22 08:30:51;;;;;;;4.33;1.87;;;7.50;94.50;;;;;;5084984;28;20452;-68
2022/11/22 08:33:18;;;;;;;7.93;2.80;;;7.50;94.60;;;;;;5090455;28;20472;-68
2022/11/22 08:35:49;;;;;;;7.33;2.80;;;7.50;94.70;;;;;;5090199;28;20481;-68
2022/11/22 08:38:17;;;;;;;5.93;2.10;;;7.60;94.60;;;;;;5090650;28;20464;-68
2022/11/22 08:40:44;;;;;;;9.90;2.90;;;7.60;94.20;;;;;;5090902;28;20951;-68
2022/11/22 08:43:11;;;;;;;5.30;2.37;;;7.70;94.10;;;;;;5089986;28;20469;-68
2022/11/22 08:45:37;;;;;;;7.80;2.67;;;7.70;94.00;;;;;;5090162;28;20862;-68
2022/11/22 08:48:04;;;;;;;4.47;2.10;;;7.80;93.80;;;;;;5091114;28;20480;-68
2022/11/22 08:50:31;;;;;;;8.00;2.10;;;7.80;93.60;;;;;;5090132;28;20433;-68
2022/11/22 08:53:00;;;;;;;7.00;3.30;;;7.80;93.40;;;;;;5090336;28;20461;-68
2022/11/22 08:55:28;;;;;;;9.83;2.80;;;7.90;93.60;;;;;;5088266;28;20491;-68
2022/11/22 08:57:58;;;;;;;10.10;2.60;;;8.00;93.40;;;;;;5088024;28;20445;-68
2022/11/22 09:00:25;;;;;;;10.67;3.13;;;8.00;93.10;;;;;;5087091;28;20444;-68
2022/11/22 09:02:52;;;;;;;6.87;3.40;;;8.00;92.80;;;;;;5086231;28;20472;-68
2022/11/22 09:05:18;;;;;;;6.07;3.63;;;8.10;92.90;;;;;;5076980;28;20912;-68
2022/11/22 09:07:45;;;;;;;9.30;3.90;;;8.20;92.90;;;;;;5084032;28;20449;-68
2022/11/22 09:10:12;;;;;;;10.20;4.90;;;8.30;93.00;;;;;;5080049;28;20457;-69
2022/11/22 09:12:43;;;;;;;12.33;4.60;;;8.30;92.60;;;;;;5085771;28;20469;-68
2022/11/22 09:15:10;;;;;;;8.77;3.30;;;8.40;92.60;;;;;;5086371;28;20465;-69
2022/11/22 09:17:37;;;;;;;6.27;1.60;;;8.50;92.40;;;;;;5086653;28;20426;-69
2022/11/22 09:20:05;;;;;;;5.50;1.80;;;8.50;92.10;;;;;;5088033;28;20445;-68
2022/11/22 09:22:32;;;;;;;5.67;1.87;;;8.60;92.00;;;;;;5088092;28;20479;-69
2022/11/22 09:24:58;;;;;;;3.07;1.37;;;8.60;92.00;;;;;;5088640;28;20430;-69
2022/11/22 09:27:25;;;;;;;7.47;1.50;;;8.70;91.70;;;;;;5088641;28;20459;-68
2022/11/22 09:29:53;;;;;;;8.73;2.20;;;8.80;91.90;;;;;;5089089;28;20441;-68
2022/11/22 09:32:20;;;;;;;3.17;1.17;;;8.80;91.70;;;;;;5086374;28;20487;-69
2022/11/22 09:34:47;;;;;;;5.27;2.07;;;8.90;91.60;;;;;;5085486;28;20539;-69
2022/11/22 09:37:17;;;;;;;4.90;2.23;;;8.90;91.30;;;;;;5083839;28;20465;-68
2022/11/22 09:39:43;;;;;;;6.23;1.83;;;9.00;91.30;;;;;;5080379;28;20503;-69
2022/11/22 09:42:39;;;;;;;9.23;1.57;;;9.00;91.40;;;;;;5079817;28;20473;-68
2022/11/22 09:45:25;;;;;;;7.37;1.50;;;9.00;91.00;;;;;;5077359;28;20422;-68
2022/11/22 09:48:01;;;;;;;5.60;2.00;;;9.00;90.90;;;;;;5078355;28;20440;-68
2022/11/22 09:50:36;;;;;;;11.77;1.90;;;9.10;91.10;;;;;;5086657;28;20434;-68
2022/11/22 09:53:08;;;;;;;9.33;1.87;;;9.10;91.20;;;;;;5086069;28;20463;-68
2022/11/22 09:55:40;;;;;;;5.57;1.77;;;9.20;91.20;;;;;;5085407;28;20473;-69
2022/11/22 09:58:13;;;;;;;7.30;1.63;;;9.20;91.10;;;;;;5082158;28;20447;-69
2022/11/22 10:00:43;;;;;;;4.27;1.33;;;9.30;90.80;;;;;;5082180;28;20439;-68
2022/11/22 10:03:18;;;;;;;4.50;1.50;;;9.30;90.70;;;;;;5084470;28;20493;-69
2022/11/22 10:05:50;;;;;;;5.67;1.47;;;9.40;90.60;;;;;;5086425;28;20438;-69
2022/11/22 10:08:25;;;;;;;7.63;2.00;;;9.40;90.10;;;;;;5085593;28;20427;-68
2022/11/22 10:10:56;;;;;;;5.13;1.60;;;9.30;90.10;;;;;;5085471;28;20441;-69
2022/11/22 10:13:29;;;;;;;3.00;1.73;;;9.40;90.20;;;;;;5085016;28;20466;-69
2022/11/22 10:16:03;;;;;;;4.03;1.30;;;9.40;90.10;;;;;;5085450;28;20479;-69
2022/11/22 10:18:38;;;;;;;2.33;1.70;;;9.50;90.00;;;;;;5083988;28;20431;-68
2022/11/22 10:21:09;;;;;;;6.20;2.07;;;9.50;90.00;;;;;;5084490;28;20926;-69
2022/11/22 10:23:38;;;;;;;4.03;1.50;;;9.60;89.60;;;;;;5085243;28;20477;-69
2022/11/22 10:26:12;;;;;;;4.13;2.00;;;9.70;89.70;;;;;;5084267;28;20455;-69
2022/11/22 10:28:42;;;;;;;4.07;1.73;;;9.70;89.10;;;;;;5084930;28;20439;-68
2022/11/22 10:31:18;;;;;;;7.23;1.27;;;9.70;89.20;;;;;;5083247;28;20458;-69
2022/11/22 10:33:52;;;;;;;2.37;1.50;;;9.70;89.20;;;;;;5084760;28;20475;-69
2022/11/22 10:36:28;;;;;;;10.43;1.50;;;9.80;89.50;;;;;;5084929;28;20490;-68
2022/11/22 10:39:10;;;;;;;5.10;1.50;;;9.80;89.20;;;;;;5085390;28;20428;-69
2022/11/22 10:41:49;;;;;;;2.60;1.60;;;9.90;89.00;;;;;;5084479;28;20948;-69
2022/11/22 10:44:27;;;;;;;5.53;1.80;;;9.90;89.00;;;;;;5084558;28;20428;-69
2022/11/22 10:47:03;;;;;;;3.70;1.70;;;9.90;88.40;;;;;;5083546;28;20432;-69
2022/11/22 10:49:43;;;;;;;4.10;1.80;;;10.10;87.50;;;;;;5084165;28;20436;-69
2022/11/22 10:52:18;;;;;;;4.20;1.43;;;10.20;87.50;;;;;;5084419;28;21017;-69
2022/11/22 10:54:52;;;;;;;3.27;1.93;;;10.60;87.40;;;;;;5083548;28;20577;-69
2022/11/22 10:57:29;;;;;;;3.27;1.63;;;10.90;85.40;;;;;;5085148;28;20440;-69
2022/11/22 11:00:13;;;;;;;2.90;1.70;;;11.20;83.90;;;;;;5084785;28;20435;-69
2022/11/22 11:03:04;;;;;;;5.40;2.23;;;11.50;82.50;;;;;;5085492;28;20479;-69
2022/11/22 11:05:37;;;;;;;2.30;1.77;;;11.60;80.20;;;;;;5085503;28;20419;-69
2022/11/22 11:08:05;;;;;;;3.70;1.23;;;11.40;80.30;;;;;;5087435;28;20441;-68
2022/11/22 11:10:36;;;;;;;3.40;1.67;;;11.50;80.50;;;;;;5088998;28;20453;-69
2022/11/22 11:13:07;;;;;;;4.57;1.23;;;11.80;80.50;;;;;;5089018;28;20477;-69
2022/11/22 11:15:37;;;;;;;2.30;0.90;;;12.20;79.30;;;;;;5086400;28;20600;-68
2022/11/22 11:18:14;;;;;;;1.57;0.83;;;12.60;76.90;;;;;;5087111;28;20478;-69
2022/11/22 11:20:45;;;;;;;2.50;1.27;;;12.80;74.50;;;;;;5088154;28;20429;-69
2022/11/22 11:23:12;;;;;;;2.10;0.90;;;12.80;73.80;;;;;;5088260;28;21052;-69
2022/11/22 11:25:42;;;;;;;2.20;1.13;;;12.70;74.50;;;;;;5087160;28;20455;-69
2022/11/22 11:28:12;;;;;;;2.10;0.63;;;12.60;75.60;;;;;;5081982;28;20448;-70
2022/11/22 11:30:41;;;;;;;2.37;0.90;;;12.70;75.70;;;;;;5080777;28;20460;-69
2022/11/22 11:33:27;;;;;;;3.00;1.50;;;12.70;74.60;;;;;;5086561;28;20472;-69
2022/11/22 11:35:57;;;;;;;2.27;1.53;;;12.80;73.40;;;;;;5087423;28;20478;-69
2022/11/22 11:38:28;;;;;;;2.30;1.10;;;12.60;73.50;;;;;;5088209;28;20444;-69
2022/11/22 11:40:55;;;;;;;2.63;1.33;;;12.40;74.30;;;;;;5086813;28;20452;-69
2022/11/22 11:43:23;;;;;;;5.77;1.23;;;12.20;75.40;;;;;;5081491;28;20464;-69
2022/11/22 11:45:50;;;;;;;2.10;0.93;;;12.00;75.90;;;;;;5081460;28;20431;-69
2022/11/22 11:48:29;;;;;;;1.07;0.70;;;11.80;76.70;;;;;;5086270;28;20507;-69
2022/11/22 11:51:13;;;;;;;2.23;0.87;;;11.70;77.60;;;;;;5086704;28;20429;-69
2022/11/22 11:53:42;;;;;;;0.97;0.70;;;11.50;77.90;;;;;;5086963;28;20468;-69
2022/11/22 11:56:28;;;;;;;1.00;0.80;;;11.30;79.20;;;;;;5090345;28;20492;-69
2022/11/22 11:58:57;;;;;;;0.90;0.80;;;11.30;79.30;;;;;;5093411;28;20444;-69
2022/11/22 12:01:25;;;;;;;1.17;0.70;;;11.20;79.10;;;;;;5094498;28;20456;-69
2022/11/22 12:03:57;;;;;;;2.13;0.50;;;11.20;79.40;;;;;;5095999;28;20553;-69
2022/11/22 12:06:29;;;;;;;1.63;0.90;;;11.30;79.30;;;;;;5094288;28;20432;-69
2022/11/22 12:08:56;;;;;;;3.40;0.80;;;11.30;79.10;;;;;;5089859;28;20422;-69
2022/11/22 12:11:31;;;;;;;2.30;0.73;;;11.40;78.20;;;;;;5086682;28;20428;-69
2022/11/22 12:14:00;;;;;;;2.67;1.00;;;11.40;78.00;;;;;;5082344;28;20559;-69
2022/11/22 12:16:30;;;;;;;0.60;0.57;;;11.50;78.70;;;;;;5080788;28;20539;-69
2022/11/22 12:19:08;;;;;;;0.50;0.40;;;11.40;78.40;;;;;;5085116;28;20501;-69
2022/11/22 12:21:42;;;;;;;1.63;0.70;;;11.40;78.00;;;;;;5086421;28;20435;-69
2022/11/22 12:24:14;;;;;;;3.03;0.70;;;11.40;78.40;;;;;;5086440;28;20472;-69
2022/11/22 12:26:41;;;;;;;2.13;0.53;;;11.40;77.80;;;;;;5086987;28;20470;-69
2022/11/22 12:29:11;;;;;;;5.97;0.87;;;11.40;77.30;;;;;;5087336;28;20443;-69
2022/11/22 12:31:42;;;;;;;0.67;0.50;;;11.40;76.90;;;;;;5087748;28;20444;-69
2022/11/22 12:34:13;;;;;;;1.43;0.50;;;11.40;77.00;;;;;;5086520;28;20473;-68
2022/11/22 12:36:46;;;;;;;1.53;0.50;;;11.30;77.50;;;;;;5088091;28;20540;-69
2022/11/22 12:39:17;;;;;;;0.50;0.50;;;11.20;77.20;;;;;;5087739;28;20510;-69
2022/11/22 12:41:48;;;;;;;4.13;0.33;;;11.10;78.00;;;;;;5087232;28;20435;-68
2022/11/22 12:44:18;;;;;;;0.60;0.40;;;11.00;78.70;;;;;;5087007;28;20501;-69
2022/11/22 12:46:49;;;;;;;1.10;0.60;;;11.00;78.80;;;;;;5086794;28;20438;-69
2022/11/22 12:49:27;;;;;;;0.60;0.50;;;10.90;78.90;;;;;;5086973;28;20432;-69
2022/11/22 12:51:57;;;;;;;1.00;0.90;;;10.90;78.90;;;;;;5086729;28;20448;-69
2022/11/22 12:54:30;;;;;;;1.00;0.60;;;10.80;78.90;;;;;;5086892;28;20443;-70
2022/11/22 12:57:01;;;;;;;0.77;0.50;;;10.80;79.30;;;;;;5086730;28;20560;-69
2022/11/22 12:59:36;;;;;;;2.87;0.50;;;10.80;80.10;;;;;;5087180;28;20436;-69
2022/11/22 13:02:12;;;;;;;0.70;0.70;;;10.70;79.30;;;;;;5086818;28;20498;-69
2022/11/22 13:04:55;;;;;;;1.47;0.83;;;10.70;79.90;;;;;;5087541;28;20428;-69
2022/11/22 13:07:32;;;;;;;1.70;0.60;;;10.60;80.10;;;;;;5086072;28;20424;-69
2022/11/22 13:10:06;;;;;;;1.43;0.60;;;10.60;80.80;;;;;;5084352;28;20439;-69
2022/11/22 13:12:37;;;;;;;1.03;0.40;;;10.50;80.80;;;;;;5086194;28;20490;-69